createdAt,value
2019-05-22T00:00:24.418Z,98090.50
2019-05-22T00:02:50.357Z,98075.73
2019-05-22T00:05:16.752Z,98083.18
2019-05-22T00:07:43.977Z,98079.91
2019-05-22T00:10:12.495Z,98085.66
2019-05-22T00:12:46.578Z,98091.47
2019-05-22T00:15:07.123Z,98077.48
2019-05-22T00:17:33.462Z,98092.92
2019-05-22T00:20:00.418Z,98100.56
2019-05-22T00:22:27.101Z,98097.13
2019-05-22T00:24:53.199Z,98098.98
2019-05-22T00:27:19.540Z,98099.58
2019-05-22T00:29:45.668Z,98099.84
2019-05-22T00:32:12.720Z,98099.95
2019-05-22T00:34:38.929Z,98102.17
2019-05-22T00:37:05.736Z,98103.02
2019-05-22T00:39:31.826Z,98112.19
2019-05-22T00:41:58.202Z,98108.22
2019-05-22T00:44:24.328Z,98112.70
2019-05-22T00:46:50.299Z,98108.22
2019-05-22T00:49:16.400Z,98108.55
2019-05-22T00:51:42.494Z,98107.64
2019-05-22T00:54:09.063Z,98106.21
2019-05-22T00:56:35.606Z,98109.16
2019-05-22T00:59:04.968Z,98110.87
2019-05-22T01:01:32.087Z,98105.39
2019-05-22T01:03:58.099Z,98105.79
2019-05-22T01:06:26.506Z,98108.55
2019-05-22T01:08:53.157Z,98109.33
2019-05-22T01:11:19.389Z,98113.02
2019-05-22T01:13:46.118Z,98117.70
2019-05-22T01:16:12.833Z,98119.66
2019-05-22T01:18:39.399Z,98115.08
2019-05-22T01:21:05.324Z,98128.02
2019-05-22T01:23:31.630Z,98111.49
2019-05-22T01:25:58.716Z,98116.92
2019-05-22T01:28:25.259Z,98119.97
2019-05-22T01:30:51.743Z,98116.80
2019-05-22T01:33:17.706Z,98111.09
2019-05-22T01:35:43.992Z,98117.02
2019-05-22T01:38:10.141Z,98125.97
2019-05-22T01:40:40.187Z,98126.48
2019-05-22T01:43:06.794Z,98119.97
2019-05-22T01:45:33.758Z,98124.15
2019-05-22T01:48:03.517Z,98122.39
2019-05-22T01:50:36.073Z,98124.45
2019-05-22T01:53:02.335Z,98128.64
2019-05-22T01:55:29.884Z,98129.37
2019-05-22T01:57:55.859Z,98135.45
2019-05-22T02:00:21.932Z,98132.72
2019-05-22T02:02:48.087Z,98128.96
2019-05-22T02:05:14.018Z,98131.28
2019-05-22T02:07:40.541Z,98139.64
2019-05-22T02:10:10.072Z,98135.27
2019-05-22T02:12:48.659Z,98143.20
2019-05-22T02:15:15.203Z,98141.97
2019-05-22T02:17:41.713Z,98144.94
2019-05-22T02:20:09.048Z,98143.94
2019-05-22T02:22:36.429Z,98141.16
2019-05-22T02:25:03.731Z,98144.13
2019-05-22T02:27:29.892Z,98144.73
2019-05-22T02:29:56.366Z,98141.67
2019-05-22T02:32:24.519Z,98144.33
2019-05-22T02:34:50.796Z,98148.61
2019-05-22T02:37:18.885Z,98150.74
2019-05-22T02:39:45.912Z,98150.94
2019-05-22T02:42:15.857Z,98150.12
2019-05-22T02:44:42.973Z,98154.41
2019-05-22T02:47:18.682Z,98154.41
2019-05-22T02:49:37.515Z,98165.61
2019-05-22T02:52:04.165Z,98160.92
2019-05-22T02:54:31.644Z,98166.41
2019-05-22T02:56:58.881Z,98163.25
2019-05-22T02:59:25.498Z,98169.27
2019-05-22T03:01:51.993Z,98171.78
2019-05-22T03:04:18.136Z,98176.80
2019-05-22T03:06:44.142Z,98179.94
2019-05-22T03:09:15.060Z,98182.68
2019-05-22T03:11:58.798Z,98183.49
2019-05-22T03:14:25.571Z,98176.15
2019-05-22T03:16:55.454Z,98182.98
2019-05-22T03:19:36.715Z,98179.12
2019-05-22T03:22:21.900Z,98179.44
2019-05-22T03:24:48.898Z,98181.04
2019-05-22T03:27:17.808Z,98182.18
2019-05-22T03:29:49.699Z,98185.00
2019-05-22T03:32:16.093Z,98192.92
2019-05-22T03:34:42.373Z,98197.20
2019-05-22T03:37:08.746Z,98193.13
2019-05-22T03:39:34.878Z,98195.16
2019-05-22T03:42:00.971Z,98196.16
2019-05-22T03:44:26.956Z,98195.67
2019-05-22T03:46:53.527Z,98196.20
2019-05-22T03:49:29.983Z,98204.22
2019-05-22T03:51:47.982Z,98208.69
2019-05-22T03:54:14.125Z,98200.95
2019-05-22T03:56:41.019Z,98194.15
2019-05-22T03:59:07.302Z,98206.03
2019-05-22T04:01:34.157Z,98207.67
2019-05-22T04:04:03.816Z,98214.05
2019-05-22T04:06:29.935Z,98216.38
2019-05-22T04:08:59.709Z,98218.00
2019-05-22T04:11:29.522Z,98220.34
2019-05-22T04:13:55.657Z,98223.28
2019-05-22T04:16:21.977Z,98219.23
2019-05-22T04:18:48.881Z,98221.56
2019-05-22T04:21:15.141Z,98221.06
2019-05-22T04:23:41.147Z,98223.70
2019-05-22T04:26:07.930Z,98229.59
2019-05-22T04:28:37.722Z,98196.97
2019-05-22T04:31:03.783Z,98230.31
2019-05-22T04:33:29.869Z,98200.99
2019-05-22T04:35:55.910Z,98234.18
2019-05-22T04:38:22.002Z,98233.64
2019-05-22T04:40:49.398Z,98230.64
2019-05-22T04:43:20.228Z,98238.88
2019-05-22T04:45:47.430Z,98241.75
2019-05-22T04:48:14.223Z,98244.45
2019-05-22T04:50:40.286Z,98246.68
2019-05-22T04:53:06.260Z,98240.89
2019-05-22T04:55:32.572Z,98241.73
2019-05-22T04:58:00.787Z,98241.33
2019-05-22T05:00:27.779Z,98252.11
2019-05-22T05:02:53.916Z,98251.92
2019-05-22T05:05:22.002Z,98256.31
2019-05-22T05:07:48.462Z,98254.67
2019-05-22T05:10:14.875Z,98214.45
2019-05-22T05:12:40.977Z,98256.42
2019-05-22T05:15:07.574Z,98259.47
2019-05-22T05:17:34.262Z,98263.27
2019-05-22T05:20:00.534Z,98259.50
2019-05-22T05:22:42.405Z,98258.98
2019-05-22T05:25:08.802Z,98258.81
2019-05-22T05:27:35.548Z,98262.45
2019-05-22T05:30:02.398Z,98266.10
2019-05-22T05:32:28.434Z,98265.41
2019-05-22T05:34:57.164Z,98264.67
2019-05-22T05:37:23.335Z,98270.70
2019-05-22T05:39:53.129Z,98271.89
2019-05-22T05:42:19.078Z,98267.22
2019-05-22T05:44:45.303Z,98276.42
2019-05-22T05:47:12.769Z,98276.92
2019-05-22T05:49:38.906Z,98278.34
2019-05-22T05:52:05.867Z,98278.73
2019-05-22T05:54:31.813Z,98274.45
2019-05-22T05:57:18.415Z,98283.45
2019-05-22T05:59:44.797Z,98289.98
2019-05-22T06:02:17.609Z,98283.22
2019-05-22T06:04:43.575Z,98285.17
2019-05-22T06:07:17.588Z,98283.55
2019-05-22T06:09:46.031Z,98283.95
2019-05-22T06:12:12.136Z,98282.12
2019-05-22T06:14:40.511Z,98287.61
2019-05-22T06:17:22.414Z,98285.45
2019-05-22T06:19:55.188Z,98289.75
2019-05-22T06:22:21.128Z,98294.66
2019-05-22T06:24:58.208Z,98292.33
2019-05-22T06:27:25.937Z,98290.61
2019-05-22T06:30:02.947Z,98294.98
2019-05-22T06:33:05.396Z,98291.92
2019-05-22T06:35:33.065Z,98297.32
2019-05-22T06:38:05.627Z,98301.02
2019-05-22T06:40:32.147Z,98302.75
2019-05-22T06:43:21.761Z,98301.84
2019-05-22T06:45:48.304Z,98305.59
2019-05-22T06:48:14.348Z,98307.41
2019-05-22T06:50:40.291Z,98305.39
2019-05-22T06:53:09.872Z,98301.84
2019-05-22T06:55:35.280Z,98304.89
2019-05-22T06:58:01.779Z,98314.30
2019-05-22T07:00:28.192Z,98308.71
2019-05-22T07:02:54.339Z,98311.14
2019-05-22T07:05:20.836Z,98317.31
2019-05-22T07:07:47.245Z,98321.06
2019-05-22T07:10:13.647Z,98325.66
2019-05-22T07:12:40.523Z,98327.08
2019-05-22T07:15:16.216Z,98328.79
2019-05-22T07:17:42.400Z,98330.81
2019-05-22T07:20:08.895Z,98330.72
2019-05-22T07:22:35.158Z,98339.48
2019-05-22T07:25:03.480Z,98338.98
2019-05-22T07:27:29.791Z,98349.50
2019-05-22T07:29:56.032Z,98349.77
2019-05-22T07:32:22.365Z,98346.59
2019-05-22T07:34:48.660Z,98352.32
2019-05-22T07:37:14.930Z,98356.72
2019-05-22T07:39:41.150Z,98353.97
2019-05-22T07:42:07.502Z,98354.70
2019-05-22T07:44:33.783Z,98344.52
2019-05-22T07:46:59.953Z,98357.71
2019-05-22T07:49:26.034Z,98356.72
2019-05-22T07:52:00.564Z,98350.60
2019-05-22T07:54:21.122Z,98351.52
2019-05-22T07:56:47.482Z,98354.24
2019-05-22T07:59:14.227Z,98361.78
2019-05-22T08:01:40.468Z,98361.05
2019-05-22T08:04:06.986Z,98371.14
2019-05-22T08:06:33.543Z,98363.81
2019-05-22T08:09:01.287Z,98327.72
2019-05-22T08:11:27.673Z,98355.02
2019-05-22T08:13:53.699Z,98356.67
2019-05-22T08:16:20.697Z,98360.27
2019-05-22T08:18:47.076Z,98364.11
2019-05-22T08:21:13.457Z,98354.83
2019-05-22T08:23:39.826Z,98360.45
2019-05-22T08:26:07.764Z,98366.77
2019-05-22T08:28:35.209Z,98365.84
2019-05-22T08:31:02.338Z,98369.73
2019-05-22T08:33:30.628Z,98366.26
2019-05-22T08:35:57.745Z,98366.26
2019-05-22T08:38:28.598Z,98395.40
2019-05-22T08:40:56.293Z,98373.80
2019-05-22T08:43:22.722Z,98382.14
2019-05-22T08:45:49.201Z,98385.30
2019-05-22T08:48:15.574Z,98385.16
2019-05-22T08:50:42.118Z,98391.52
2019-05-22T08:53:11.810Z,98388.45
2019-05-22T08:55:38.251Z,98393.66
2019-05-22T08:58:05.029Z,98400.28
2019-05-22T09:00:31.040Z,98404.34
2019-05-22T09:02:57.285Z,98405.39
2019-05-22T09:05:25.039Z,98412.44
2019-05-22T09:07:51.209Z,98418.14
2019-05-22T09:10:18.169Z,98418.97
2019-05-22T09:12:44.369Z,98417.19
2019-05-22T09:15:11.542Z,98425.96
2019-05-22T09:17:37.968Z,98421.39
2019-05-22T09:20:06.106Z,98422.81
2019-05-22T09:22:40.603Z,98422.61
2019-05-22T09:25:03.388Z,98425.34
2019-05-22T09:27:30.023Z,98426.16
2019-05-22T09:29:56.059Z,98426.16
2019-05-22T09:32:22.251Z,98423.28
2019-05-22T09:34:49.757Z,98428.80
2019-05-22T09:37:15.935Z,98424.03
2019-05-22T09:39:41.999Z,98426.92
2019-05-22T09:42:08.344Z,98426.60
2019-05-22T09:44:34.558Z,98430.03
2019-05-22T09:47:01.949Z,98428.52
2019-05-22T09:49:28.477Z,98432.91
2019-05-22T09:51:55.302Z,98435.05
2019-05-22T09:54:21.531Z,98439.20
2019-05-22T09:56:48.055Z,98444.00
2019-05-22T09:59:14.133Z,98442.36
2019-05-22T10:01:40.227Z,98445.97
2019-05-22T10:04:06.506Z,98448.39
2019-05-22T10:06:32.940Z,98448.21
2019-05-22T10:08:58.911Z,98451.05
2019-05-22T10:11:24.864Z,98454.61
2019-05-22T10:13:51.323Z,98452.37
2019-05-22T10:16:17.887Z,98455.94
2019-05-22T10:18:44.577Z,98461.23
2019-05-22T10:21:11.624Z,98458.90
2019-05-22T10:23:38.134Z,98464.78
2019-05-22T10:26:04.660Z,98462.13
2019-05-22T10:28:30.857Z,98462.87
2019-05-22T10:30:57.915Z,98472.05
2019-05-22T10:33:25.144Z,98470.42
2019-05-22T10:35:51.534Z,98468.91
2019-05-22T10:38:19.378Z,98478.70
2019-05-22T10:40:46.326Z,98472.48
2019-05-22T10:43:13.575Z,98477.47
2019-05-22T10:45:39.699Z,98478.69
2019-05-22T10:48:05.959Z,98478.79
2019-05-22T10:50:32.845Z,98483.58
2019-05-22T10:52:59.098Z,98482.02
2019-05-22T10:55:25.381Z,98484.08
2019-05-22T10:57:52.177Z,98487.56
2019-05-22T11:00:18.912Z,98489.94
2019-05-22T11:02:45.031Z,98488.90
2019-05-22T11:05:11.567Z,98493.09
2019-05-22T11:07:38.619Z,98493.51
2019-05-22T11:10:05.605Z,98496.16
2019-05-22T11:12:31.984Z,98499.73
2019-05-22T11:14:57.930Z,98494.42
2019-05-22T11:17:24.215Z,98493.61
2019-05-22T11:19:50.795Z,98488.81
2019-05-22T11:22:17.090Z,98496.16
2019-05-22T11:24:43.166Z,98492.47
2019-05-22T11:27:09.291Z,98494.61
2019-05-22T11:29:35.483Z,98495.74
2019-05-22T11:32:01.669Z,98495.53
2019-05-22T11:34:27.810Z,98499.82
2019-05-22T11:36:54.473Z,98507.18
2019-05-22T11:39:38.153Z,98505.03
2019-05-22T11:41:50.261Z,98506.58
2019-05-22T11:44:17.127Z,98505.84
2019-05-22T11:46:43.288Z,98507.78
2019-05-22T11:49:09.850Z,98505.17
2019-05-22T11:51:36.518Z,98508.92
2019-05-22T11:54:09.312Z,98519.70
2019-05-22T11:56:31.286Z,98525.42
2019-05-22T11:58:57.648Z,98523.09
2019-05-22T12:01:23.693Z,98518.20
2019-05-22T12:03:49.742Z,98521.26
2019-05-22T12:06:16.008Z,98366.34
2019-05-22T12:08:42.087Z,98524.00
2019-05-22T12:11:12.969Z,98522.27
2019-05-22T12:13:39.027Z,98518.98
2019-05-22T12:16:05.272Z,98517.05
2019-05-22T12:18:31.354Z,98517.78
2019-05-22T12:20:57.588Z,98518.70
2019-05-22T12:23:23.918Z,98523.18
2019-05-22T12:25:50.193Z,98528.17
2019-05-22T12:28:16.348Z,98530.91
2019-05-22T12:30:43.561Z,98536.84
2019-05-22T12:33:13.696Z,98534.80
2019-05-22T12:35:37.981Z,98537.86
2019-05-22T12:38:05.068Z,98536.85
2019-05-22T12:40:32.410Z,98541.15
2019-05-22T12:42:59.715Z,98546.03
2019-05-22T12:45:26.482Z,98537.95
2019-05-22T12:47:52.752Z,98538.28
2019-05-22T12:50:19.852Z,98547.56
2019-05-22T12:52:48.854Z,98540.64
2019-05-22T12:55:15.316Z,98547.81
2019-05-22T12:57:41.460Z,98549.92
2019-05-22T13:00:08.021Z,98550.05
2019-05-22T13:02:35.688Z,98549.70
2019-05-22T13:05:02.059Z,98547.15
2019-05-22T13:07:28.571Z,98546.36
2019-05-22T13:09:54.604Z,98541.34
2019-05-22T13:12:20.679Z,98548.79
2019-05-22T13:14:46.819Z,98550.11
2019-05-22T13:17:13.253Z,98553.17
2019-05-22T13:19:40.169Z,98555.10
2019-05-22T13:22:10.148Z,98559.57
2019-05-22T13:24:37.088Z,98560.80
2019-05-22T13:27:06.128Z,98558.55
2019-05-22T13:29:32.065Z,98557.50
2019-05-22T13:31:59.242Z,98555.91
2019-05-22T13:34:26.348Z,98557.73
2019-05-22T13:36:56.679Z,98550.80
2019-05-22T13:39:23.722Z,98553.59
2019-05-22T13:41:50.614Z,98546.87
2019-05-22T13:44:17.525Z,98555.50
2019-05-22T13:46:43.871Z,98564.55
2019-05-22T13:49:10.325Z,98558.33
2019-05-22T13:51:38.706Z,98569.48
2019-05-22T13:54:05.255Z,98573.59
2019-05-22T13:56:31.534Z,98581.61
2019-05-22T13:58:59.132Z,98586.98
2019-05-22T14:01:25.912Z,98586.25
2019-05-22T14:03:52.457Z,98587.20
2019-05-22T14:06:18.742Z,98588.50
2019-05-22T14:08:44.990Z,98589.98
2019-05-22T14:11:11.205Z,98587.41
2019-05-22T14:13:37.277Z,98606.46
2019-05-22T14:16:03.915Z,98595.94
2019-05-22T14:18:30.096Z,98598.39
2019-05-22T14:20:56.464Z,98600.77
2019-05-22T14:23:22.762Z,98601.34
2019-05-22T14:25:49.386Z,98594.77
2019-05-22T14:28:15.739Z,98589.08
2019-05-22T14:30:42.115Z,98599.41
2019-05-22T14:33:08.468Z,98596.89
2019-05-22T14:35:47.806Z,98590.39
2019-05-22T14:38:04.046Z,98594.38
2019-05-22T14:40:30.201Z,98588.08
2019-05-22T14:42:56.671Z,98593.88
2019-05-22T14:45:22.933Z,98596.95
2019-05-22T14:47:49.302Z,98594.88
2019-05-22T14:50:16.249Z,98593.97
2019-05-22T14:52:43.535Z,98597.22
2019-05-22T14:55:11.139Z,98596.13
2019-05-22T14:57:38.687Z,98596.45
2019-05-22T15:00:07.442Z,98588.74
2019-05-22T15:02:33.957Z,98589.56
2019-05-22T15:05:00.226Z,98591.39
2019-05-22T15:07:26.442Z,98591.99
2019-05-22T15:09:52.737Z,98605.05
2019-05-22T15:12:19.059Z,98596.13
2019-05-22T15:14:47.196Z,98597.44
2019-05-22T15:17:28.620Z,98591.40
2019-05-22T15:19:41.562Z,98596.71
2019-05-22T15:22:07.711Z,98596.59
2019-05-22T15:24:33.892Z,98599.44
2019-05-22T15:26:59.919Z,98602.32
2019-05-22T15:29:26.295Z,98600.99
2019-05-22T15:31:52.619Z,98598.81
2019-05-22T15:34:18.854Z,98610.22
2019-05-22T15:36:44.905Z,98598.09
2019-05-22T15:39:12.501Z,98596.60
2019-05-22T15:41:39.929Z,98600.11
2019-05-22T15:44:06.215Z,98595.27
2019-05-22T15:46:33.127Z,98592.13
2019-05-22T15:49:02.521Z,98594.20
2019-05-22T15:51:30.773Z,98594.33
2019-05-22T15:54:00.412Z,98597.40
2019-05-22T15:56:29.860Z,98589.61
2019-05-22T15:58:56.508Z,98282.80
2019-05-22T16:01:23.906Z,98596.64
2019-05-22T16:03:50.801Z,98599.55
2019-05-22T16:06:19.390Z,98596.80
2019-05-22T16:08:45.773Z,98597.20
2019-05-22T16:11:13.932Z,98594.45
2019-05-22T16:13:40.750Z,98594.82
2019-05-22T16:16:26.535Z,98595.88
2019-05-22T16:19:03.095Z,98592.29
2019-05-22T16:21:29.129Z,98593.20
2019-05-22T16:23:56.715Z,98593.20
2019-05-22T16:26:22.865Z,98592.63
2019-05-22T16:28:49.105Z,98601.16
2019-05-22T16:31:16.725Z,98577.47
2019-05-22T16:33:45.890Z,98586.30
2019-05-22T16:36:12.218Z,98590.76
2019-05-22T16:38:39.478Z,98593.45
2019-05-22T16:41:05.804Z,98594.96
2019-05-22T16:43:48.710Z,98589.05
2019-05-22T16:46:06.997Z,98595.00
2019-05-22T16:48:33.829Z,98589.63
2019-05-22T16:51:00.571Z,98593.70
2019-05-22T16:53:26.813Z,98588.28
2019-05-22T16:55:53.089Z,98583.50
2019-05-22T16:58:19.407Z,98593.63
2019-05-22T17:00:47.573Z,98590.66
2019-05-22T17:03:14.664Z,98584.41
2019-05-22T17:05:41.855Z,98587.30
2019-05-22T17:08:08.195Z,98591.88
2019-05-22T17:10:34.350Z,98580.95
2019-05-22T17:13:00.954Z,98589.63
2019-05-22T17:15:27.699Z,98586.48
2019-05-22T17:17:54.796Z,98590.36
2019-05-22T17:20:21.039Z,98584.92
2019-05-22T17:22:47.411Z,98584.55
2019-05-22T17:25:13.825Z,98590.23
2019-05-22T17:27:42.285Z,98583.02
2019-05-22T17:30:09.646Z,98584.66
2019-05-22T17:32:36.095Z,98579.86
2019-05-22T17:35:02.930Z,98584.86
2019-05-22T17:37:29.385Z,98582.05
2019-05-22T17:39:55.568Z,98583.87
2019-05-22T17:42:22.964Z,98590.22
2019-05-22T17:44:50.361Z,98550.30
2019-05-22T17:47:17.809Z,98584.70
2019-05-22T17:49:44.085Z,98593.70
2019-05-22T17:52:12.249Z,98596.22
2019-05-22T17:54:39.895Z,98596.72
2019-05-22T17:57:06.799Z,98603.24
2019-05-22T17:59:32.856Z,98609.03
2019-05-22T18:01:59.577Z,98601.07
2019-05-22T18:04:25.867Z,98599.41
2019-05-22T18:06:52.026Z,98598.99
2019-05-22T18:09:18.394Z,98606.05
2019-05-22T18:11:44.384Z,98597.80
2019-05-22T18:14:11.376Z,98606.64
2019-05-22T18:16:37.342Z,98604.07
2019-05-22T18:19:03.795Z,98600.55
2019-05-22T18:21:29.970Z,98598.47
2019-05-22T18:23:56.560Z,98615.06
2019-05-22T18:26:23.140Z,98609.91
2019-05-22T18:28:49.480Z,98611.65
2019-05-22T18:31:15.809Z,98625.91
2019-05-22T18:33:42.060Z,98616.61
2019-05-22T18:36:08.104Z,98626.33
2019-05-22T18:38:35.132Z,98626.20
2019-05-22T18:41:01.104Z,98624.50
2019-05-22T18:43:28.479Z,98628.95
2019-05-22T18:45:54.722Z,98631.88
2019-05-22T18:48:21.021Z,98633.59
2019-05-22T18:50:47.267Z,98632.36
2019-05-22T18:53:13.613Z,98633.05
2019-05-22T18:55:41.909Z,98637.58
2019-05-22T18:58:08.079Z,98640.23
2019-05-22T19:00:34.296Z,98646.60
2019-05-22T19:03:00.818Z,98644.23
2019-05-22T19:05:29.904Z,98638.05
2019-05-22T19:07:56.490Z,98636.86
2019-05-22T19:10:22.919Z,98639.58
2019-05-22T19:12:49.282Z,98641.00
2019-05-22T19:15:15.830Z,98641.02
2019-05-22T19:17:41.911Z,98641.88
2019-05-22T19:20:08.788Z,98641.78
2019-05-22T19:22:35.056Z,98648.22
2019-05-22T19:25:01.453Z,98646.47
2019-05-22T19:27:28.761Z,98659.85
2019-05-22T19:29:55.193Z,98648.36
2019-05-22T19:32:21.288Z,98651.22
2019-05-22T19:34:47.649Z,98650.61
2019-05-22T19:37:13.802Z,98657.22
2019-05-22T19:39:41.217Z,98660.53
2019-05-22T19:42:07.368Z,98661.85
2019-05-22T19:44:33.467Z,98656.73
2019-05-22T19:46:59.824Z,98658.09
2019-05-22T19:49:27.374Z,98664.54
2019-05-22T19:51:54.844Z,98657.48
2019-05-22T19:54:21.300Z,98663.58
2019-05-22T19:56:47.932Z,98668.69
2019-05-22T19:59:14.093Z,98668.20
2019-05-22T20:01:40.422Z,98668.72
2019-05-22T20:04:06.497Z,98674.80
2019-05-22T20:06:32.969Z,98667.09
2019-05-22T20:08:59.556Z,98671.20
2019-05-22T20:11:25.766Z,98681.38
2019-05-22T20:13:52.303Z,98679.92
2019-05-22T20:16:18.859Z,98678.25
2019-05-22T20:18:45.333Z,98678.51
2019-05-22T20:21:11.698Z,98678.90
2019-05-22T20:23:37.735Z,98685.66
2019-05-22T20:26:04.013Z,98683.52
2019-05-22T20:28:30.160Z,98683.04
2019-05-22T20:30:56.422Z,98687.46
2019-05-22T20:33:26.733Z,98682.05
2019-05-22T20:35:51.439Z,98684.09
2019-05-22T20:38:17.557Z,98680.13
2019-05-22T20:40:43.865Z,98688.59
2019-05-22T20:43:10.215Z,98688.59
2019-05-22T20:45:38.244Z,98686.48
2019-05-22T20:48:10.101Z,98683.72
2019-05-22T20:50:36.276Z,98687.80
2019-05-22T20:53:02.712Z,98684.55
2019-05-22T20:55:29.607Z,98689.30
2019-05-22T20:57:55.868Z,98686.69
2019-05-22T21:00:22.944Z,98688.59
2019-05-22T21:02:52.698Z,98682.75
2019-05-22T21:05:21.530Z,98679.17
2019-05-22T21:07:53.960Z,98685.59
2019-05-22T21:10:22.967Z,98689.81
2019-05-22T21:12:48.910Z,98690.25
2019-05-22T21:15:15.087Z,98575.30
2019-05-22T21:17:41.899Z,98694.88
2019-05-22T21:20:09.463Z,98692.70
2019-05-22T21:22:35.673Z,98694.36
2019-05-22T21:25:03.725Z,98703.49
2019-05-22T21:27:29.710Z,98700.58
2019-05-22T21:29:55.655Z,98702.81
2019-05-22T21:32:21.631Z,98704.81
2019-05-22T21:34:47.868Z,98705.75
2019-05-22T21:37:16.402Z,98706.02
2019-05-22T21:39:42.346Z,98697.78
2019-05-22T21:42:08.431Z,98692.56
2019-05-22T21:44:34.669Z,98697.70
2019-05-22T21:47:01.165Z,98689.81
2019-05-22T21:49:27.303Z,98691.77
2019-05-22T21:51:53.494Z,98698.30
2019-05-22T21:54:19.988Z,98699.55
2019-05-22T21:56:46.283Z,98691.55
2019-05-22T21:59:12.342Z,98690.75
2019-05-22T22:01:38.317Z,98698.36
2019-05-22T22:04:05.663Z,98699.05
2019-05-22T22:06:33.324Z,98706.60
2019-05-22T22:09:00.061Z,98697.09
2019-05-22T22:11:27.522Z,98697.79
2019-05-22T22:13:54.010Z,98703.11
2019-05-22T22:16:20.042Z,98701.89
2019-05-22T22:18:46.306Z,98704.08
2019-05-22T22:21:13.521Z,98701.80
2019-05-22T22:23:40.209Z,98702.80
2019-05-22T22:26:24.206Z,98703.72
2019-05-22T22:28:35.787Z,98707.42
2019-05-22T22:31:02.930Z,98711.59
2019-05-22T22:33:29.417Z,98713.52
2019-05-22T22:35:56.053Z,98706.67
2019-05-22T22:38:22.227Z,98708.23
2019-05-22T22:40:50.162Z,98707.98
2019-05-22T22:43:16.499Z,98719.06
2019-05-22T22:45:42.875Z,98718.10
2019-05-22T22:48:09.231Z,98714.78
2019-05-22T22:50:36.826Z,98715.32
2019-05-22T22:53:03.957Z,98725.67
2019-05-22T22:55:31.042Z,98720.50
2019-05-22T22:57:57.578Z,98724.94
2019-05-22T23:00:23.991Z,98726.38
2019-05-22T23:02:50.324Z,98729.61
2019-05-22T23:05:16.421Z,98728.41
2019-05-22T23:07:42.769Z,98725.11
2019-05-22T23:10:11.567Z,98725.47
2019-05-22T23:12:39.111Z,98722.62
2019-05-22T23:15:05.574Z,98723.81
2019-05-22T23:17:31.793Z,98730.70
2019-05-22T23:19:57.699Z,98732.33
2019-05-22T23:22:23.467Z,98729.45
2019-05-22T23:24:50.510Z,98569.17
2019-05-22T23:27:16.701Z,98735.53
2019-05-22T23:29:42.712Z,98738.31
2019-05-22T23:32:08.951Z,98737.13
2019-05-22T23:34:36.101Z,98735.16
2019-05-22T23:37:02.730Z,98734.73
2019-05-22T23:39:28.671Z,98732.53
2019-05-22T23:41:58.474Z,98737.52
2019-05-22T23:44:24.445Z,98739.95
2019-05-22T23:46:50.784Z,98737.10
2019-05-22T23:49:16.880Z,98741.60
2019-05-22T23:51:43.349Z,98740.84
2019-05-22T23:54:09.525Z,98745.05
2019-05-22T23:56:36.964Z,98745.05
2019-05-22T23:59:03.658Z,98746.99
